createdAt,value
2022-09-28T00:01:09.183Z,78.90
2022-09-28T00:03:53.215Z,78.80
2022-09-28T00:06:38.115Z,79.03
2022-09-28T00:09:20.880Z,78.96
2022-09-28T00:12:03.698Z,79.21
2022-09-28T00:14:46.477Z,78.99
2022-09-28T00:17:29.387Z,79.32
2022-09-28T00:20:12.357Z,79.28
2022-09-28T00:22:56.506Z,79.16
2022-09-28T00:25:39.266Z,79.18
2022-09-28T00:28:22.076Z,79.15
2022-09-28T00:31:04.863Z,79.16
2022-09-28T00:33:51.378Z,79.08
2022-09-28T00:36:35.070Z,79.06
2022-09-28T00:39:19.265Z,78.95
2022-09-28T00:42:02.188Z,79.23
2022-09-28T00:44:49.012Z,79.36
2022-09-28T00:47:40.823Z,79.18
2022-09-28T00:50:28.046Z,79.33
2022-09-28T00:53:14.683Z,79.16
2022-09-28T00:56:04.053Z,79.41
2022-09-28T00:58:50.001Z,79.42
2022-09-28T01:01:32.771Z,79.40
2022-09-28T01:04:15.767Z,79.18
2022-09-28T01:07:00.019Z,79.07
2022-09-28T01:09:44.840Z,78.89
2022-09-28T01:12:29.607Z,78.81
2022-09-28T01:15:13.345Z,78.80
2022-09-28T01:18:08.331Z,78.56
2022-09-28T01:21:02.497Z,78.39
2022-09-28T01:24:32.211Z,78.82
2022-09-28T01:27:21.579Z,78.68
2022-09-28T01:30:08.475Z,78.85
2022-09-28T01:32:59.547Z,78.77
2022-09-28T01:35:49.060Z,78.74
2022-09-28T01:38:38.504Z,79.07
2022-09-28T01:41:25.059Z,78.88
2022-09-28T01:44:13.959Z,78.77
2022-09-28T01:47:04.190Z,78.93
2022-09-28T01:49:51.749Z,78.86
2022-09-28T01:52:41.002Z,78.86
2022-09-28T01:55:30.786Z,78.68
2022-09-28T01:58:18.722Z,78.45
2022-09-28T02:01:09.775Z,78.58
2022-09-28T02:04:02.743Z,78.51
2022-09-28T02:06:51.991Z,78.52
2022-09-28T02:09:39.113Z,78.32
2022-09-28T02:12:26.746Z,78.48
2022-09-28T02:15:15.622Z,78.49
2022-09-28T02:18:02.255Z,78.70
2022-09-28T02:20:57.559Z,78.64
2022-09-28T02:23:47.287Z,78.63
2022-09-28T02:26:34.332Z,78.72
2022-09-28T02:29:17.429Z,78.92
2022-09-28T02:32:00.411Z,79.13
2022-09-28T02:34:44.999Z,79.08
2022-09-28T02:37:28.615Z,79.08
2022-09-28T02:40:16.146Z,79.28
2022-09-28T02:43:06.431Z,79.44
2022-09-28T02:46:02.110Z,80.17
2022-09-28T02:49:22.736Z,80.20
2022-09-28T02:52:24.101Z,80.52
2022-09-28T02:55:40.638Z,80.65
2022-09-28T02:58:35.212Z,80.32
2022-09-28T03:01:27.680Z,80.61
2022-09-28T03:04:19.862Z,80.63
2022-09-28T03:07:07.599Z,81.07
2022-09-28T03:10:00.480Z,80.84
2022-09-28T03:12:45.405Z,80.77
2022-09-28T03:15:29.895Z,80.94
2022-09-28T03:18:12.985Z,81.24
2022-09-28T03:20:57.774Z,81.03
2022-09-28T03:23:41.235Z,80.97
2022-09-28T03:26:25.467Z,81.09
2022-09-28T03:29:08.415Z,81.27
2022-09-28T03:31:51.607Z,81.08
2022-09-28T03:34:35.624Z,80.92
2022-09-28T03:37:19.023Z,80.61
2022-09-28T03:40:02.409Z,80.37
2022-09-28T03:42:46.756Z,80.44
2022-09-28T03:45:29.696Z,80.45
2022-09-28T03:48:12.529Z,80.52
2022-09-28T03:50:56.017Z,80.52
2022-09-28T03:53:39.419Z,80.26
2022-09-28T03:56:22.805Z,80.04
2022-09-28T03:59:07.085Z,80.25
2022-09-28T04:01:50.162Z,79.93
2022-09-28T04:04:33.264Z,80.04
2022-09-28T04:07:16.069Z,80.16
2022-09-28T04:10:00.160Z,80.19
2022-09-28T04:12:43.024Z,80.18
2022-09-28T04:15:27.321Z,80.11
2022-09-28T04:18:11.667Z,80.17
2022-09-28T04:21:15.370Z,80.11
2022-09-28T04:24:04.532Z,80.24
2022-09-28T04:26:47.455Z,80.18
2022-09-28T04:29:31.206Z,80.07
2022-09-28T04:32:17.116Z,80.09
2022-09-28T04:35:00.279Z,80.17
2022-09-28T04:37:43.236Z,80.03
2022-09-28T04:40:26.294Z,80.27
2022-09-28T04:43:09.253Z,80.12
2022-09-28T04:45:52.249Z,80.17
2022-09-28T04:48:39.024Z,80.08
2022-09-28T04:51:34.606Z,79.93
2022-09-28T04:54:17.528Z,80.05
2022-09-28T04:57:00.600Z,80.23
2022-09-28T04:59:43.389Z,80.30
2022-09-28T05:02:26.292Z,80.29
2022-09-28T05:05:28.967Z,80.13
2022-09-28T05:08:32.633Z,80.26
2022-09-28T05:11:15.989Z,80.57
2022-09-28T05:13:59.124Z,80.50
2022-09-28T05:16:42.133Z,80.56
2022-09-28T05:19:43.238Z,80.64
2022-09-28T05:22:28.554Z,80.66
2022-09-28T05:25:11.695Z,81.14
2022-09-28T05:28:08.243Z,81.96
2022-09-28T05:31:04.567Z,82.23
2022-09-28T05:34:13.187Z,82.38
2022-09-28T05:36:56.043Z,82.49
2022-09-28T05:39:40.443Z,83.07
2022-09-28T05:42:23.297Z,83.69
2022-09-28T05:45:06.748Z,83.05
2022-09-28T05:47:49.739Z,83.16
2022-09-28T05:50:35.855Z,83.57
2022-09-28T05:53:18.909Z,83.54
2022-09-28T05:56:04.032Z,83.31
2022-09-28T05:58:48.695Z,83.82
2022-09-28T06:01:34.572Z,84.18
2022-09-28T06:04:18.547Z,84.26
2022-09-28T06:07:03.532Z,84.37
2022-09-28T06:09:46.340Z,84.17
2022-09-28T06:12:36.942Z,84.17
2022-09-28T06:15:26.061Z,84.64
2022-09-28T06:18:14.033Z,85.02
2022-09-28T06:21:05.894Z,84.76
2022-09-28T06:23:56.276Z,85.07
2022-09-28T06:26:39.839Z,85.48
2022-09-28T06:29:24.778Z,85.86
2022-09-28T06:32:08.481Z,85.59
2022-09-28T06:34:56.379Z,85.20
2022-09-28T06:37:41.016Z,85.51
2022-09-28T06:40:24.850Z,85.15
2022-09-28T06:43:11.508Z,85.05
2022-09-28T06:46:15.188Z,84.83
2022-09-28T06:49:09.289Z,84.72
2022-09-28T06:52:14.960Z,84.59
2022-09-28T06:55:41.198Z,84.32
2022-09-28T06:58:50.446Z,84.34
2022-09-28T07:01:41.774Z,84.06
2022-09-28T07:04:44.867Z,83.83
2022-09-28T07:07:50.087Z,84.10
2022-09-28T07:10:42.757Z,83.90
2022-09-28T07:13:50.883Z,83.89
2022-09-28T07:17:05.839Z,84.07
2022-09-28T07:19:44.501Z,84.01
2022-09-28T07:22:41.280Z,84.04
2022-09-28T07:25:30.230Z,83.76
2022-09-28T07:28:35.871Z,83.60
2022-09-28T07:31:35.196Z,83.55
2022-09-28T07:34:45.416Z,83.51
2022-09-28T07:37:34.061Z,83.21
2022-09-28T07:40:34.864Z,83.44
2022-09-28T07:43:20.833Z,83.18
2022-09-28T07:46:09.251Z,83.23
2022-09-28T07:48:53.689Z,83.11
2022-09-28T07:52:00.385Z,83.11
2022-09-28T07:54:43.131Z,83.28
2022-09-28T07:57:38.444Z,82.99
2022-09-28T08:00:41.851Z,83.00
2022-09-28T08:03:24.693Z,82.91
2022-09-28T08:06:11.166Z,82.94
2022-09-28T08:08:56.899Z,82.86
2022-09-28T08:11:49.841Z,82.88
2022-09-28T08:14:53.018Z,82.62
2022-09-28T08:17:51.240Z,82.58
2022-09-28T08:20:53.834Z,82.63
2022-09-28T08:23:37.364Z,82.58
2022-09-28T08:26:22.538Z,82.72
2022-09-28T08:29:06.301Z,82.64
2022-09-28T08:32:16.807Z,82.68
2022-09-28T08:35:26.377Z,82.50
2022-09-28T08:38:27.752Z,82.60
2022-09-28T08:41:40.684Z,82.88
2022-09-28T08:44:47.202Z,82.98
2022-09-28T08:48:13.633Z,82.78
2022-09-28T08:51:31.123Z,83.03
2022-09-28T08:54:40.564Z,83.28
2022-09-28T08:57:38.373Z,83.42
2022-09-28T09:00:24.234Z,83.26
2022-09-28T09:03:10.799Z,84.75
2022-09-28T09:06:03.588Z,84.36
2022-09-28T09:09:23.728Z,83.94
2022-09-28T09:12:14.895Z,84.75
2022-09-28T09:15:41.438Z,85.16
2022-09-28T09:18:52.198Z,84.59
2022-09-28T09:22:01.515Z,84.72
2022-09-28T09:24:50.571Z,84.93
2022-09-28T09:27:52.070Z,84.60
2022-09-28T09:30:44.590Z,84.76
2022-09-28T09:33:46.906Z,84.69
2022-09-28T09:37:08.655Z,84.86
2022-09-28T09:40:16.185Z,84.68
2022-09-28T09:43:40.243Z,84.49
2022-09-28T09:46:48.060Z,84.91
2022-09-28T09:49:37.592Z,84.59
2022-09-28T09:52:26.649Z,84.84
2022-09-28T09:55:17.761Z,84.61
2022-09-28T09:58:14.867Z,84.59
2022-09-28T10:01:08.065Z,84.48
2022-09-28T10:04:20.758Z,84.20
2022-09-28T10:07:06.029Z,84.22
2022-09-28T10:09:52.806Z,84.34
2022-09-28T10:12:53.355Z,84.30
2022-09-28T10:15:36.871Z,84.18
2022-09-28T10:18:34.640Z,84.35
2022-09-28T10:21:40.648Z,84.06
2022-09-28T10:24:42.530Z,84.19
2022-09-28T10:27:29.545Z,84.13
2022-09-28T10:30:18.928Z,83.95
2022-09-28T10:33:02.501Z,83.93
2022-09-28T10:35:49.747Z,84.05
2022-09-28T10:38:35.186Z,84.01
2022-09-28T10:41:28.758Z,83.76
2022-09-28T10:44:18.854Z,83.91
2022-09-28T10:47:25.083Z,84.01
2022-09-28T10:50:21.961Z,84.20
2022-09-28T10:53:20.186Z,84.34
2022-09-28T10:56:24.061Z,84.37
2022-09-28T10:59:38.131Z,84.86
2022-09-28T11:02:38.558Z,84.90
2022-09-28T11:05:32.511Z,84.90
2022-09-28T11:08:23.948Z,84.83
2022-09-28T11:11:10.304Z,84.80
2022-09-28T11:13:57.410Z,84.67
2022-09-28T11:16:45.221Z,84.69
2022-09-28T11:19:29.977Z,83.93
2022-09-28T11:22:41.674Z,84.04
2022-09-28T11:25:28.146Z,83.63
2022-09-28T11:28:23.344Z,83.58
2022-09-28T11:31:09.824Z,83.61
2022-09-28T11:34:31.006Z,83.27
2022-09-28T11:37:48.440Z,83.12
2022-09-28T11:40:51.468Z,82.94
2022-09-28T11:43:57.938Z,83.04
2022-09-28T11:46:53.023Z,82.78
2022-09-28T11:49:41.276Z,82.98
2022-09-28T11:52:28.780Z,82.83
2022-09-28T11:55:18.444Z,82.48
2022-09-28T11:58:07.052Z,82.07
2022-09-28T12:00:56.918Z,81.78
2022-09-28T12:03:54.891Z,81.52
2022-09-28T12:06:46.097Z,81.43
2022-09-28T12:09:37.134Z,81.48
2022-09-28T12:12:36.412Z,81.83
2022-09-28T12:15:28.475Z,81.92
2022-09-28T12:18:18.852Z,81.48
2022-09-28T12:21:14.900Z,81.60
2022-09-28T12:24:04.446Z,81.47
2022-09-28T12:26:53.196Z,81.47
2022-09-28T12:29:42.075Z,80.83
2022-09-28T12:32:32.911Z,80.57
2022-09-28T12:35:20.785Z,80.63
2022-09-28T12:38:22.414Z,80.98
2022-09-28T12:41:16.823Z,81.23
2022-09-28T12:44:18.763Z,81.61
2022-09-28T12:47:22.796Z,81.70
2022-09-28T12:53:34.978Z,79.92
2022-09-28T12:56:23.303Z,80.47
2022-09-28T12:59:18.190Z,80.34
2022-09-28T13:02:29.118Z,80.38
2022-09-28T13:05:35.027Z,79.79
2022-09-28T13:08:23.551Z,79.68
2022-09-28T13:11:21.599Z,79.71
2022-09-28T13:14:26.110Z,79.76
2022-09-28T13:17:21.415Z,79.08
2022-09-28T13:20:13.760Z,78.31
2022-09-28T13:23:07.250Z,77.46
2022-09-28T13:25:56.211Z,77.53
2022-09-28T13:28:42.824Z,77.21
2022-09-28T13:31:32.476Z,77.55
2022-09-28T13:34:22.449Z,77.50
2022-09-28T13:37:22.083Z,77.21
2022-09-28T13:40:06.364Z,77.44
2022-09-28T13:43:06.915Z,77.32
2022-09-28T13:46:07.474Z,76.91
2022-09-28T13:49:04.498Z,76.21
2022-09-28T13:52:03.795Z,76.07
2022-09-28T13:55:03.598Z,75.96
2022-09-28T13:57:52.333Z,76.13
2022-09-28T14:00:45.597Z,76.27
2022-09-28T14:03:44.442Z,76.34
2022-09-28T14:06:29.119Z,76.48
2022-09-28T14:09:26.268Z,75.46
2022-09-28T14:12:47.954Z,75.95
2022-09-28T14:15:43.798Z,76.24
2022-09-28T14:18:33.195Z,76.50
2022-09-28T14:21:54.353Z,76.22
2022-09-28T14:25:06.477Z,76.28
2022-09-28T14:28:04.919Z,76.47
2022-09-28T14:30:50.883Z,76.53
2022-09-28T14:33:38.788Z,76.52
2022-09-28T14:36:47.439Z,76.39
2022-09-28T14:39:50.101Z,76.43
2022-09-28T14:42:33.400Z,76.56
2022-09-28T14:45:21.894Z,76.40
2022-09-28T14:48:20.859Z,76.09
2022-09-28T14:51:39.181Z,76.40
2022-09-28T14:54:24.614Z,76.61
2022-09-28T14:57:17.246Z,76.58
2022-09-28T15:00:01.699Z,76.65
2022-09-28T15:02:51.931Z,76.74
2022-09-28T15:05:43.970Z,76.84
2022-09-28T15:08:37.141Z,76.77
2022-09-28T15:11:23.653Z,76.77
2022-09-28T15:14:08.372Z,76.98
2022-09-28T15:16:51.068Z,76.63
2022-09-28T15:19:42.884Z,76.60
2022-09-28T15:22:25.760Z,76.74
2022-09-28T15:25:14.882Z,76.85
2022-09-28T15:28:02.366Z,77.03
2022-09-28T15:30:46.180Z,76.96
2022-09-28T15:33:48.935Z,76.84
2022-09-28T15:36:35.757Z,76.58
2022-09-28T15:39:23.032Z,76.64
2022-09-28T15:42:07.042Z,76.73
2022-09-28T15:45:13.236Z,76.47
2022-09-28T15:48:18.713Z,76.56
2022-09-28T15:51:10.975Z,76.47
2022-09-28T15:53:58.371Z,76.50
2022-09-28T15:56:53.639Z,76.74
2022-09-28T15:59:39.306Z,76.56
2022-09-28T16:02:25.189Z,76.73
2022-09-28T16:05:35.765Z,76.69
2022-09-28T16:08:24.675Z,77.07
2022-09-28T16:11:13.664Z,76.94
2022-09-28T16:14:01.792Z,77.09
2022-09-28T16:16:47.995Z,77.19
2022-09-28T16:19:37.802Z,77.17
2022-09-28T16:22:26.733Z,77.16
2022-09-28T16:25:19.126Z,77.20
2022-09-28T16:28:02.200Z,77.26
2022-09-28T16:31:01.631Z,77.17
2022-09-28T16:33:46.681Z,77.16
2022-09-28T16:36:42.722Z,77.44
2022-09-28T16:39:25.691Z,77.29
2022-09-28T16:42:09.907Z,77.36
2022-09-28T16:44:53.029Z,77.51
2022-09-28T16:47:36.025Z,77.31
2022-09-28T16:50:19.497Z,77.49
2022-09-28T16:53:31.189Z,77.47
2022-09-28T16:56:14.586Z,77.38
2022-09-28T16:58:57.509Z,77.41
2022-09-28T17:01:43.730Z,77.45
2022-09-28T17:04:27.665Z,77.44
2022-09-28T17:07:13.174Z,77.36
2022-09-28T17:09:57.931Z,77.46
2022-09-28T17:12:41.795Z,77.54
2022-09-28T17:15:26.007Z,77.60
2022-09-28T17:18:09.355Z,77.57
2022-09-28T17:20:55.054Z,77.70
2022-09-28T17:23:37.885Z,77.70
2022-09-28T17:26:30.201Z,78.03
2022-09-28T17:29:15.331Z,77.85
2022-09-28T17:31:58.222Z,77.71
2022-09-28T17:34:41.027Z,78.00
2022-09-28T17:37:23.787Z,77.99
2022-09-28T17:40:16.636Z,78.10
2022-09-28T17:43:01.071Z,78.04
2022-09-28T17:45:47.048Z,78.14
2022-09-28T17:48:29.967Z,78.24
2022-09-28T17:51:14.893Z,78.19
2022-09-28T17:53:58.175Z,78.09
2022-09-28T17:56:42.428Z,78.17
2022-09-28T17:59:27.194Z,77.98
2022-09-28T18:02:10.919Z,78.17
2022-09-28T18:04:54.105Z,78.08
2022-09-28T18:07:37.721Z,78.23
2022-09-28T18:10:23.649Z,78.13
2022-09-28T18:13:06.941Z,78.23
2022-09-28T18:15:52.907Z,78.29
2022-09-28T18:18:38.340Z,78.26
2022-09-28T18:21:21.916Z,78.55
2022-09-28T18:24:05.122Z,78.68
2022-09-28T18:26:47.970Z,78.79
2022-09-28T18:29:33.264Z,78.87
2022-09-28T18:32:17.911Z,78.93
2022-09-28T18:35:00.698Z,79.02
2022-09-28T18:37:43.552Z,79.03
2022-09-28T18:40:27.037Z,79.28
2022-09-28T18:43:10.474Z,79.10
2022-09-28T18:45:55.110Z,79.15
2022-09-28T18:48:40.654Z,79.10
2022-09-28T18:51:23.763Z,79.10
2022-09-28T18:54:07.190Z,79.32
2022-09-28T18:56:51.301Z,79.03
2022-09-28T18:59:34.166Z,79.17
2022-09-28T19:02:17.160Z,79.04
2022-09-28T19:05:01.505Z,79.25
2022-09-28T19:07:44.397Z,79.22
2022-09-28T19:10:27.617Z,79.22
2022-09-28T19:13:10.677Z,79.18
2022-09-28T19:15:53.568Z,79.29
2022-09-28T19:18:36.821Z,79.42
2022-09-28T19:21:22.189Z,79.38
2022-09-28T19:24:05.608Z,79.48
2022-09-28T19:26:49.491Z,79.50
2022-09-28T19:29:32.394Z,79.53
2022-09-28T19:32:15.373Z,79.70
2022-09-28T19:34:59.334Z,79.38
2022-09-28T19:37:46.651Z,79.40
2022-09-28T19:40:30.155Z,79.56
2022-09-28T19:43:13.924Z,79.49
2022-09-28T19:45:57.104Z,79.55
2022-09-28T19:48:43.380Z,79.39
2022-09-28T19:51:28.732Z,79.58
2022-09-28T19:54:13.719Z,79.48
2022-09-28T19:56:57.595Z,79.46
2022-09-28T19:59:40.606Z,79.39
2022-09-28T20:02:24.012Z,79.53
2022-09-28T20:05:07.196Z,79.42
2022-09-28T20:07:50.092Z,79.46
2022-09-28T20:10:34.926Z,79.54
2022-09-28T20:13:17.944Z,79.57
2022-09-28T20:16:04.951Z,79.43
2022-09-28T20:18:50.939Z,79.39
2022-09-28T20:21:33.936Z,79.34
2022-09-28T20:24:17.613Z,79.44
2022-09-28T20:27:02.837Z,79.57
2022-09-28T20:29:45.725Z,79.56
2022-09-28T20:32:31.874Z,79.76
2022-09-28T20:35:22.331Z,79.92
2022-09-28T20:38:13.731Z,79.81
2022-09-28T20:41:00.721Z,79.89
2022-09-28T20:43:46.564Z,79.95
2022-09-28T20:46:29.565Z,79.98
2022-09-28T20:49:12.855Z,79.94
2022-09-28T20:51:55.847Z,79.86
2022-09-28T20:54:38.779Z,79.93
2022-09-28T20:57:21.683Z,80.04
2022-09-28T21:00:06.948Z,80.25
2022-09-28T21:02:53.033Z,80.14
2022-09-28T21:05:36.856Z,80.30
2022-09-28T21:08:22.366Z,80.33
2022-09-28T21:11:05.241Z,80.43
2022-09-28T21:13:48.780Z,80.45
2022-09-28T21:16:35.314Z,80.41
2022-09-28T21:19:18.248Z,80.35
2022-09-28T21:22:01.081Z,80.23
2022-09-28T21:24:43.922Z,80.21
2022-09-28T21:27:26.786Z,80.38
2022-09-28T21:30:10.652Z,80.22
2022-09-28T21:32:54.839Z,80.36
2022-09-28T21:35:38.584Z,80.21
2022-09-28T21:38:21.469Z,80.29
2022-09-28T21:41:04.408Z,80.33
2022-09-28T21:43:47.395Z,80.21
2022-09-28T21:46:34.239Z,80.28
2022-09-28T21:49:18.758Z,80.49
2022-09-28T21:52:02.140Z,80.21
2022-09-28T21:54:44.993Z,80.42
2022-09-28T21:57:27.872Z,80.37
2022-09-28T22:00:14.148Z,80.21
2022-09-28T22:02:57.081Z,80.13
2022-09-28T22:05:41.333Z,80.17
2022-09-28T22:08:24.704Z,80.30
2022-09-28T22:11:09.567Z,80.46
2022-09-28T22:13:54.694Z,80.49
2022-09-28T22:16:37.536Z,80.11
2022-09-28T22:19:20.619Z,80.23
2022-09-28T22:22:04.868Z,80.04
2022-09-28T22:24:47.712Z,79.80
2022-09-28T22:27:32.921Z,79.96
2022-09-28T22:30:15.852Z,79.62
2022-09-28T22:32:58.676Z,79.67
2022-09-28T22:35:41.534Z,79.74
2022-09-28T22:38:25.910Z,79.79
2022-09-28T22:41:08.751Z,79.97
2022-09-28T22:43:53.199Z,79.93
2022-09-28T22:46:36.446Z,80.04
2022-09-28T22:49:19.391Z,79.91
2022-09-28T22:52:02.610Z,79.92
2022-09-28T22:54:48.011Z,79.96
2022-09-28T22:57:30.844Z,79.81
2022-09-28T23:00:14.931Z,79.61
2022-09-28T23:02:57.763Z,79.44
2022-09-28T23:05:40.697Z,79.38
2022-09-28T23:08:25.031Z,79.12
2022-09-28T23:11:09.418Z,79.38
2022-09-28T23:13:53.238Z,79.71
2022-09-28T23:16:36.132Z,79.60
2022-09-28T23:19:19.039Z,79.69
2022-09-28T23:22:01.981Z,79.71
2022-09-28T23:24:44.801Z,79.47
2022-09-28T23:27:29.028Z,79.52
2022-09-28T23:30:12.339Z,79.65
2022-09-28T23:32:55.251Z,79.36
2022-09-28T23:35:38.088Z,79.49
2022-09-28T23:38:20.992Z,79.33
2022-09-28T23:41:03.859Z,79.31
2022-09-28T23:43:48.186Z,79.44
2022-09-28T23:46:31.073Z,79.21
2022-09-28T23:49:14.069Z,79.13
2022-09-28T23:51:57.099Z,79.15
2022-09-28T23:54:39.935Z,79.12
2022-09-28T23:57:23.051Z,79.09
